Terminal Aerodrome Forecast
Issued by NWS Cleveland, OH

Home | Current Version | Previous Version | Graphics & Text | Print | Product List | Glossary On
Versions: 1 2 3 4 5 6 7 8 9 10 11 12 13
000
FTUS41 KCLE 180500
TAFCAK
TAF
KCAK 180520Z 1806/1906 14003KT P6SM SCT120 BKN250
     FM181200 18006KT P6SM OVC120
     FM181600 26008KT P6SM VCSH SCT040 OVC100
     FM182200 32008KT P6SM SCT100 BKN200=

USA.gov is the U.S. government's official web portal to all federal, state and local government web resources and services.